sensor_id;sensor_type;location;lat;lon;timestamp;temperature;humidity
36322;DHT22;23564;48.290;11.460;2023-04-03T00:00:50;3.50;99.90
36322;DHT22;23564;48.290;11.460;2023-04-03T00:03:17;3.50;1.00
36322;DHT22;23564;48.290;11.460;2023-04-03T00:05:45;3.60;1.00
36322;DHT22;23564;48.290;11.460;2023-04-03T00:08:11;3.60;1.00
36322;DHT22;23564;48.290;11.460;2023-04-03T00:10:38;3.60;1.00
36322;DHT22;23564;48.290;11.460;2023-04-03T00:13:05;3.60;26.50
36322;DHT22;23564;48.290;11.460;2023-04-03T00:15:31;3.60;84.00
36322;DHT22;23564;48.290;11.460;2023-04-03T00:17:56;3.50;1.00
36322;DHT22;23564;48.290;11.460;2023-04-03T00:20:22;3.50;59.10
36322;DHT22;23564;48.290;11.460;2023-04-03T00:22:48;3.40;14.80
36322;DHT22;23564;48.290;11.460;2023-04-03T00:25:13;3.40;31.80
36322;DHT22;23564;48.290;11.460;2023-04-03T00:27:39;3.40;93.60
36322;DHT22;23564;48.290;11.460;2023-04-03T00:30:07;3.40;99.90
36322;DHT22;23564;48.290;11.460;2023-04-03T00:32:34;3.40;99.90
36322;DHT22;23564;48.290;11.460;2023-04-03T00:35:00;3.40;99.90
36322;DHT22;23564;48.290;11.460;2023-04-03T00:37:26;3.40;1.00
36322;DHT22;23564;48.290;11.460;2023-04-03T00:39:51;3.40;1.00
36322;DHT22;23564;48.290;11.460;2023-04-03T00:42:17;3.40;23.30
36322;DHT22;23564;48.290;11.460;2023-04-03T00:47:14;3.30;75.10
36322;DHT22;23564;48.290;11.460;2023-04-03T00:49:43;3.30;97.70
36322;DHT22;23564;48.290;11.460;2023-04-03T00:52:13;3.30;99.90
36322;DHT22;23564;48.290;11.460;2023-04-03T00:54:42;3.30;99.90
36322;DHT22;23564;48.290;11.460;2023-04-03T00:57:08;3.10;99.90
36322;DHT22;23564;48.290;11.460;2023-04-03T00:59:42;3.20;99.90
36322;DHT22;23564;48.290;11.460;2023-04-03T01:02:12;3.20;99.90
36322;DHT22;23564;48.290;11.460;2023-04-03T01:04:42;3.20;99.90
36322;DHT22;23564;48.290;11.460;2023-04-03T01:07:10;3.20;99.90
36322;DHT22;23564;48.290;11.460;2023-04-03T01:09:36;3.20;99.90
36322;DHT22;23564;48.290;11.460;2023-04-03T01:12:20;3.20;99.90
36322;DHT22;23564;48.290;11.460;2023-04-03T01:14:48;3.10;99.90
36322;DHT22;23564;48.290;11.460;2023-04-03T01:17:37;3.20;99.90
36322;DHT22;23564;48.290;11.460;2023-04-03T01:23:15;3.20;99.90
36322;DHT22;23564;48.290;11.460;2023-04-03T01:25:51;3.20;99.90
36322;DHT22;23564;48.290;11.460;2023-04-03T01:28:22;3.20;99.90
36322;DHT22;23564;48.290;11.460;2023-04-03T01:33:26;3.20;99.90
36322;DHT22;23564;48.290;11.460;2023-04-03T01:35:51;3.20;99.90
36322;DHT22;23564;48.290;11.460;2023-04-03T01:38:17;3.20;99.90
36322;DHT22;23564;48.290;11.460;2023-04-03T01:40:43;3.30;99.90
36322;DHT22;23564;48.290;11.460;2023-04-03T01:43:08;3.20;99.90
36322;DHT22;23564;48.290;11.460;2023-04-03T01:45:35;3.20;99.90
36322;DHT22;23564;48.290;11.460;2023-04-03T01:48:00;3.10;99.90
36322;DHT22;23564;48.290;11.460;2023-04-03T01:50:26;3.20;99.90
36322;DHT22;23564;48.290;11.460;2023-04-03T01:52:52;3.30;99.90
36322;DHT22;23564;48.290;11.460;2023-04-03T01:55:17;3.30;99.90
36322;DHT22;23564;48.290;11.460;2023-04-03T01:57:43;3.40;99.90
36322;DHT22;23564;48.290;11.460;2023-04-03T02:00:09;3.30;99.90
36322;DHT22;23564;48.290;11.460;2023-04-03T02:02:35;3.20;99.90
36322;DHT22;23564;48.290;11.460;2023-04-03T02:05:03;3.30;99.90
36322;DHT22;23564;48.290;11.460;2023-04-03T02:07:29;3.30;63.60
36322;DHT22;23564;48.290;11.460;2023-04-03T02:09:55;3.30;99.90
36322;DHT22;23564;48.290;11.460;2023-04-03T02:12:21;3.30;99.90
36322;DHT22;23564;48.290;11.460;2023-04-03T02:14:46;3.30;48.40
36322;DHT22;23564;48.290;11.460;2023-04-03T02:17:12;3.30;71.30
36322;DHT22;23564;48.290;11.460;2023-04-03T02:19:38;3.30;95.60
36322;DHT22;23564;48.290;11.460;2023-04-03T02:22:04;3.30;99.90
36322;DHT22;23564;48.290;11.460;2023-04-03T02:24:30;3.30;22.10
36322;DHT22;23564;48.290;11.460;2023-04-03T02:26:56;3.30;1.00
36322;DHT22;23564;48.290;11.460;2023-04-03T02:29:22;3.30;1.00
36322;DHT22;23564;48.290;11.460;2023-04-03T02:31:48;3.30;1.00
36322;DHT22;23564;48.290;11.460;2023-04-03T02:34:13;3.20;1.00
36322;DHT22;23564;48.290;11.460;2023-04-03T02:36:39;3.20;1.00
36322;DHT22;23564;48.290;11.460;2023-04-03T02:39:05;3.20;1.00
36322;DHT22;23564;48.290;11.460;2023-04-03T02:41:31;3.20;1.00
36322;DHT22;23564;48.290;11.460;2023-04-03T02:44:04;3.30;1.00
36322;DHT22;23564;48.290;11.460;2023-04-03T02:46:30;3.30;99.90
36322;DHT22;23564;48.290;11.460;2023-04-03T02:48:56;3.40;99.90
36322;DHT22;23564;48.290;11.460;2023-04-03T02:51:22;3.30;99.90
36322;DHT22;23564;48.290;11.460;2023-04-03T02:53:49;3.30;99.90
36322;DHT22;23564;48.290;11.460;2023-04-03T02:56:15;3.30;99.90
36322;DHT22;23564;48.290;11.460;2023-04-03T02:58:42;3.30;1.00
36322;DHT22;23564;48.290;11.460;2023-04-03T03:01:08;3.30;99.90
36322;DHT22;23564;48.290;11.460;2023-04-03T03:03:34;3.40;99.90
36322;DHT22;23564;48.290;11.460;2023-04-03T03:06:09;3.30;99.90
36322;DHT22;23564;48.290;11.460;2023-04-03T03:08:35;3.30;99.90
36322;DHT22;23564;48.290;11.460;2023-04-03T03:11:03;3.30;99.90
36322;DHT22;23564;48.290;11.460;2023-04-03T03:13:29;3.30;99.90
36322;DHT22;23564;48.290;11.460;2023-04-03T03:15:56;3.30;1.00
36322;DHT22;23564;48.290;11.460;2023-04-03T03:18:22;3.40;99.90
36322;DHT22;23564;48.290;11.460;2023-04-03T03:20:54;3.40;99.90
36322;DHT22;23564;48.290;11.460;2023-04-03T03:23:21;3.40;99.90
36322;DHT22;23564;48.290;11.460;2023-04-03T03:25:48;3.40;1.00
36322;DHT22;23564;48.290;11.460;2023-04-03T03:28:14;3.40;99.90
36322;DHT22;23564;48.290;11.460;2023-04-03T03:30:40;3.40;99.90
36322;DHT22;23564;48.290;11.460;2023-04-03T03:33:06;3.40;99.90
36322;DHT22;23564;48.290;11.460;2023-04-03T03:35:32;3.40;99.90
36322;DHT22;23564;48.290;11.460;2023-04-03T03:37:58;3.40;99.90
36322;DHT22;23564;48.290;11.460;2023-04-03T03:40:23;3.40;1.00
36322;DHT22;23564;48.290;11.460;2023-04-03T03:42:49;3.40;99.90
36322;DHT22;23564;48.290;11.460;2023-04-03T03:45:15;3.40;99.90
36322;DHT22;23564;48.290;11.460;2023-04-03T03:47:41;3.50;99.90
36322;DHT22;23564;48.290;11.460;2023-04-03T03:50:07;3.40;99.90
36322;DHT22;23564;48.290;11.460;2023-04-03T03:52:32;3.40;99.90
36322;DHT22;23564;48.290;11.460;2023-04-03T03:54:58;3.40;99.90
36322;DHT22;23564;48.290;11.460;2023-04-03T03:57:24;3.40;99.90
36322;DHT22;23564;48.290;11.460;2023-04-03T03:59:55;3.40;99.90
36322;DHT22;23564;48.290;11.460;2023-04-03T04:02:20;3.40;99.90
36322;DHT22;23564;48.290;11.460;2023-04-03T04:04:46;3.40;1.00
36322;DHT22;23564;48.290;11.460;2023-04-03T04:07:12;3.40;99.90
36322;DHT22;23564;48.290;11.460;2023-04-03T04:09:40;3.40;99.90
36322;DHT22;23564;48.290;11.460;2023-04-03T04:12:06;3.30;99.90
36322;DHT22;23564;48.290;11.460;2023-04-03T04:14:33;3.40;1.00
36322;DHT22;23564;48.290;11.460;2023-04-03T04:16:58;3.40;99.90
36322;DHT22;23564;48.290;11.460;2023-04-03T04:19:24;3.40;99.90
36322;DHT22;23564;48.290;11.460;2023-04-03T04:21:50;3.30;99.90
36322;DHT22;23564;48.290;11.460;2023-04-03T04:24:15;3.40;99.90
36322;DHT22;23564;48.290;11.460;2023-04-03T04:26:41;3.30;99.90
36322;DHT22;23564;48.290;11.460;2023-04-03T04:29:09;3.30;99.90
36322;DHT22;23564;48.290;11.460;2023-04-03T04:31:36;3.30;99.90
36322;DHT22;23564;48.290;11.460;2023-04-03T04:36:53;3.20;99.90
36322;DHT22;23564;48.290;11.460;2023-04-03T04:39:28;3.30;1.00
36322;DHT22;23564;48.290;11.460;2023-04-03T04:41:57;3.20;99.90
36322;DHT22;23564;48.290;11.460;2023-04-03T04:44:22;3.20;99.90
36322;DHT22;23564;48.290;11.460;2023-04-03T04:46:48;3.30;1.00
36322;DHT22;23564;48.290;11.460;2023-04-03T04:49:13;3.30;1.00
36322;DHT22;23564;48.290;11.460;2023-04-03T04:51:39;3.30;1.00
36322;DHT22;23564;48.290;11.460;2023-04-03T04:54:04;3.30;99.90
36322;DHT22;23564;48.290;11.460;2023-04-03T04:56:30;3.30;99.90
36322;DHT22;23564;48.290;11.460;2023-04-03T04:58:55;3.30;99.90
36322;DHT22;23564;48.290;11.460;2023-04-03T05:01:21;3.30;1.00
36322;DHT22;23564;48.290;11.460;2023-04-03T05:03:46;3.30;99.90
36322;DHT22;23564;48.290;11.460;2023-04-03T05:06:13;3.30;1.00
36322;DHT22;23564;48.290;11.460;2023-04-03T05:08:38;3.20;1.00
36322;DHT22;23564;48.290;11.460;2023-04-03T05:11:04;3.30;1.00
36322;DHT22;23564;48.290;11.460;2023-04-03T05:13:29;3.20;99.90
36322;DHT22;23564;48.290;11.460;2023-04-03T05:15:55;3.20;99.90
36322;DHT22;23564;48.290;11.460;2023-04-03T05:18:21;3.10;99.90
36322;DHT22;23564;48.290;11.460;2023-04-03T05:20:48;3.10;1.00
36322;DHT22;23564;48.290;11.460;2023-04-03T05:23:14;3.10;99.90
36322;DHT22;23564;48.290;11.460;2023-04-03T05:25:40;3.10;1.00
36322;DHT22;23564;48.290;11.460;2023-04-03T05:28:06;3.20;99.90
36322;DHT22;23564;48.290;11.460;2023-04-03T05:30:31;3.20;1.00
36322;DHT22;23564;48.290;11.460;2023-04-03T05:32:58;3.30;99.90
36322;DHT22;23564;48.290;11.460;2023-04-03T05:35:24;3.20;99.90
36322;DHT22;23564;48.290;11.460;2023-04-03T05:37:50;3.20;99.90
36322;DHT22;23564;48.290;11.460;2023-04-03T05:40:15;3.20;1.00
36322;DHT22;23564;48.290;11.460;2023-04-03T05:42:41;3.20;1.00
36322;DHT22;23564;48.290;11.460;2023-04-03T05:45:07;3.20;1.00
36322;DHT22;23564;48.290;11.460;2023-04-03T05:47:33;3.20;1.00
36322;DHT22;23564;48.290;11.460;2023-04-03T05:49:58;3.10;99.90
36322;DHT22;23564;48.290;11.460;2023-04-03T05:52:27;3.10;1.00
36322;DHT22;23564;48.290;11.460;2023-04-03T05:54:53;3.10;1.00
36322;DHT22;23564;48.290;11.460;2023-04-03T05:57:19;3.10;1.00
36322;DHT22;23564;48.290;11.460;2023-04-03T05:59:46;3.10;1.00
36322;DHT22;23564;48.290;11.460;2023-04-03T06:02:14;3.20;99.90
36322;DHT22;23564;48.290;11.460;2023-04-03T06:04:40;3.20;99.90
36322;DHT22;23564;48.290;11.460;2023-04-03T06:07:06;3.30;1.00
36322;DHT22;23564;48.290;11.460;2023-04-03T06:09:33;3.30;1.00
36322;DHT22;23564;48.290;11.460;2023-04-03T06:11:59;3.40;99.90
36322;DHT22;23564;48.290;11.460;2023-04-03T06:14:25;3.40;99.90
36322;DHT22;23564;48.290;11.460;2023-04-03T06:16:51;3.40;99.90
36322;DHT22;23564;48.290;11.460;2023-04-03T06:19:17;3.40;99.90
36322;DHT22;23564;48.290;11.460;2023-04-03T06:21:43;3.40;99.90
36322;DHT22;23564;48.290;11.460;2023-04-03T06:24:10;3.40;99.90
36322;DHT22;23564;48.290;11.460;2023-04-03T06:26:37;3.40;99.90
36322;DHT22;23564;48.290;11.460;2023-04-03T06:29:03;3.50;99.90
36322;DHT22;23564;48.290;11.460;2023-04-03T06:31:29;3.60;99.90
36322;DHT22;23564;48.290;11.460;2023-04-03T06:33:54;3.60;79.40
36322;DHT22;23564;48.290;11.460;2023-04-03T06:36:21;3.60;99.70
36322;DHT22;23564;48.290;11.460;2023-04-03T06:38:47;3.60;99.90
36322;DHT22;23564;48.290;11.460;2023-04-03T06:41:13;3.60;99.90
36322;DHT22;23564;48.290;11.460;2023-04-03T06:43:38;3.50;99.90
36322;DHT22;23564;48.290;11.460;2023-04-03T06:46:04;3.70;99.90
36322;DHT22;23564;48.290;11.460;2023-04-03T06:48:30;3.70;69.60
36322;DHT22;23564;48.290;11.460;2023-04-03T06:50:55;3.70;1.00
36322;DHT22;23564;48.290;11.460;2023-04-03T06:53:21;3.70;99.90
36322;DHT22;23564;48.290;11.460;2023-04-03T06:55:47;3.70;99.90
36322;DHT22;23564;48.290;11.460;2023-04-03T06:58:13;3.80;99.90
36322;DHT22;23564;48.290;11.460;2023-04-03T07:00:40;3.90;9.40
36322;DHT22;23564;48.290;11.460;2023-04-03T07:03:06;3.90;1.00
36322;DHT22;23564;48.290;11.460;2023-04-03T07:05:32;3.90;99.90
36322;DHT22;23564;48.290;11.460;2023-04-03T07:07:57;4.00;84.30
36322;DHT22;23564;48.290;11.460;2023-04-03T07:10:23;4.10;37.20
36322;DHT22;23564;48.290;11.460;2023-04-03T07:12:48;4.20;1.00
36322;DHT22;23564;48.290;11.460;2023-04-03T07:15:14;4.30;99.90
36322;DHT22;23564;48.290;11.460;2023-04-03T07:17:40;4.30;99.90
36322;DHT22;23564;48.290;11.460;2023-04-03T07:20:06;4.30;80.50
36322;DHT22;23564;48.290;11.460;2023-04-03T07:22:32;4.30;8.00
36322;DHT22;23564;48.290;11.460;2023-04-03T07:24:58;4.40;1.00
36322;DHT22;23564;48.290;11.460;2023-04-03T07:27:24;4.40;99.90
36322;DHT22;23564;48.290;11.460;2023-04-03T07:29:50;4.40;99.90
36322;DHT22;23564;48.290;11.460;2023-04-03T07:32:16;4.40;99.90
36322;DHT22;23564;48.290;11.460;2023-04-03T07:34:43;4.40;99.90
36322;DHT22;23564;48.290;11.460;2023-04-03T07:37:09;4.50;99.90
36322;DHT22;23564;48.290;11.460;2023-04-03T07:39:34;4.60;99.90
36322;DHT22;23564;48.290;11.460;2023-04-03T07:42:01;4.70;99.90
36322;DHT22;23564;48.290;11.460;2023-04-03T07:44:27;4.80;9.30
36322;DHT22;23564;48.290;11.460;2023-04-03T07:46:53;4.80;1.00
36322;DHT22;23564;48.290;11.460;2023-04-03T07:49:21;4.90;1.00
36322;DHT22;23564;48.290;11.460;2023-04-03T07:51:48;5.00;1.00
36322;DHT22;23564;48.290;11.460;2023-04-03T07:54:14;5.00;1.00
36322;DHT22;23564;48.290;11.460;2023-04-03T07:56:40;5.00;99.90
36322;DHT22;23564;48.290;11.460;2023-04-03T07:59:06;5.10;99.90
36322;DHT22;23564;48.290;11.460;2023-04-03T08:01:32;5.00;99.90
36322;DHT22;23564;48.290;11.460;2023-04-03T08:03:59;5.00;99.90
36322;DHT22;23564;48.290;11.460;2023-04-03T08:06:25;5.10;99.90
36322;DHT22;23564;48.290;11.460;2023-04-03T08:08:50;5.10;99.90
36322;DHT22;23564;48.290;11.460;2023-04-03T08:11:17;5.10;99.90
36322;DHT22;23564;48.290;11.460;2023-04-03T08:13:44;5.10;99.90
36322;DHT22;23564;48.290;11.460;2023-04-03T08:16:16;5.20;99.90
36322;DHT22;23564;48.290;11.460;2023-04-03T08:18:42;5.20;57.20
36322;DHT22;23564;48.290;11.460;2023-04-03T08:21:11;5.00;99.90
36322;DHT22;23564;48.290;11.460;2023-04-03T08:23:39;5.00;99.90
36322;DHT22;23564;48.290;11.460;2023-04-03T08:26:16;5.00;85.60
36322;DHT22;23564;48.290;11.460;2023-04-03T08:28:42;5.10;76.20
36322;DHT22;23564;48.290;11.460;2023-04-03T08:31:14;5.20;91.20
36322;DHT22;23564;48.290;11.460;2023-04-03T08:33:40;5.20;2.40
36322;DHT22;23564;48.290;11.460;2023-04-03T08:36:07;5.20;99.90
36322;DHT22;23564;48.290;11.460;2023-04-03T08:38:34;5.30;90.80
36322;DHT22;23564;48.290;11.460;2023-04-03T08:41:14;5.30;45.10
36322;DHT22;23564;48.290;11.460;2023-04-03T08:44:15;5.40;1.00
36322;DHT22;23564;48.290;11.460;2023-04-03T08:47:04;5.50;1.00
36322;DHT22;23564;48.290;11.460;2023-04-03T08:49:45;5.50;1.00
36322;DHT22;23564;48.290;11.460;2023-04-03T08:52:18;5.50;1.00
36322;DHT22;23564;48.290;11.460;2023-04-03T08:54:50;5.60;1.00
36322;DHT22;23564;48.290;11.460;2023-04-03T08:57:18;5.60;99.90
36322;DHT22;23564;48.290;11.460;2023-04-03T08:59:45;5.70;99.90
36322;DHT22;23564;48.290;11.460;2023-04-03T09:02:51;5.60;99.90
36322;DHT22;23564;48.290;11.460;2023-04-03T09:08:04;5.70;99.90
36322;DHT22;23564;48.290;11.460;2023-04-03T09:10:34;5.70;99.90
36322;DHT22;23564;48.290;11.460;2023-04-03T09:13:19;5.80;99.90
36322;DHT22;23564;48.290;11.460;2023-04-03T09:15:46;5.80;99.90
36322;DHT22;23564;48.290;11.460;2023-04-03T09:18:26;5.90;99.90
36322;DHT22;23564;48.290;11.460;2023-04-03T09:21:08;5.90;99.90
36322;DHT22;23564;48.290;11.460;2023-04-03T09:23:47;6.00;99.90
36322;DHT22;23564;48.290;11.460;2023-04-03T09:26:31;6.00;99.90
36322;DHT22;23564;48.290;11.460;2023-04-03T09:29:02;6.00;99.90
36322;DHT22;23564;48.290;11.460;2023-04-03T09:31:39;5.90;99.90
36322;DHT22;23564;48.290;11.460;2023-04-03T09:34:33;5.80;99.90
36322;DHT22;23564;48.290;11.460;2023-04-03T09:37:02;5.60;99.90
36322;DHT22;23564;48.290;11.460;2023-04-03T09:39:33;5.50;99.90
36322;DHT22;23564;48.290;11.460;2023-04-03T09:42:21;5.50;99.90
36322;DHT22;23564;48.290;11.460;2023-04-03T09:45:21;5.40;99.90
36322;DHT22;23564;48.290;11.460;2023-04-03T09:47:47;5.40;99.90
36322;DHT22;23564;48.290;11.460;2023-04-03T09:52:47;5.60;99.90
36322;DHT22;23564;48.290;11.460;2023-04-03T09:57:44;5.70;99.90
36322;DHT22;23564;48.290;11.460;2023-04-03T10:00:27;5.70;99.90
36322;DHT22;23564;48.290;11.460;2023-04-03T10:02:57;5.70;99.90
36322;DHT22;23564;48.290;11.460;2023-04-03T10:05:31;5.70;99.90
36322;DHT22;23564;48.290;11.460;2023-04-03T10:08:27;5.60;99.90
36322;DHT22;23564;48.290;11.460;2023-04-03T10:11:11;5.50;99.90
36322;DHT22;23564;48.290;11.460;2023-04-03T10:13:54;5.40;99.90
36322;DHT22;23564;48.290;11.460;2023-04-03T10:16:29;5.30;99.90
36322;DHT22;23564;48.290;11.460;2023-04-03T10:21:55;5.20;99.90
36322;DHT22;23564;48.290;11.460;2023-04-03T10:27:49;5.20;99.90
36322;DHT22;23564;48.290;11.460;2023-04-03T10:36:07;5.40;1.00
36322;DHT22;23564;48.290;11.460;2023-04-03T10:39:14;5.50;1.00
36322;DHT22;23564;48.290;11.460;2023-04-03T10:47:29;5.60;99.90
36322;DHT22;23564;48.290;11.460;2023-04-03T10:55:28;6.20;96.30
36322;DHT22;23564;48.290;11.460;2023-04-03T10:57:58;6.40;1.00
36322;DHT22;23564;48.290;11.460;2023-04-03T11:00:42;6.50;99.90
36322;DHT22;23564;48.290;11.460;2023-04-03T11:03:24;6.30;1.00
36322;DHT22;23564;48.290;11.460;2023-04-03T11:05:53;6.20;1.00
36322;DHT22;23564;48.290;11.460;2023-04-03T11:08:36;6.10;1.00
36322;DHT22;23564;48.290;11.460;2023-04-03T11:11:09;6.10;1.00
36322;DHT22;23564;48.290;11.460;2023-04-03T11:16:21;5.90;1.00
36322;DHT22;23564;48.290;11.460;2023-04-03T11:18:54;5.90;1.00
36322;DHT22;23564;48.290;11.460;2023-04-03T11:21:28;5.90;1.00
36322;DHT22;23564;48.290;11.460;2023-04-03T11:23:57;5.90;1.00
36322;DHT22;23564;48.290;11.460;2023-04-03T11:26:29;5.80;1.00
36322;DHT22;23564;48.290;11.460;2023-04-03T11:29:08;5.80;1.00
36322;DHT22;23564;48.290;11.460;2023-04-03T11:34:47;6.10;1.00
36322;DHT22;23564;48.290;11.460;2023-04-03T11:42:49;6.60;1.00
36322;DHT22;23564;48.290;11.460;2023-04-03T11:47:57;6.90;1.00
36322;DHT22;23564;48.290;11.460;2023-04-03T12:05:50;7.30;99.90
36322;DHT22;23564;48.290;11.460;2023-04-03T12:35:01;7.20;99.90
36322;DHT22;23564;48.290;11.460;2023-04-03T12:45:02;7.50;99.90
36322;DHT22;23564;48.290;11.460;2023-04-03T12:47:35;7.60;99.90
36322;DHT22;23564;48.290;11.460;2023-04-03T12:50:04;7.80;99.90
36322;DHT22;23564;48.290;11.460;2023-04-03T12:52:46;7.70;99.90
36322;DHT22;23564;48.290;11.460;2023-04-03T12:55:19;7.70;99.90
36322;DHT22;23564;48.290;11.460;2023-04-03T12:57:45;7.70;99.90
36322;DHT22;23564;48.290;11.460;2023-04-03T13:00:28;7.70;65.60
36322;DHT22;23564;48.290;11.460;2023-04-03T13:02:54;7.80;56.90
36322;DHT22;23564;48.290;11.460;2023-04-03T13:05:21;7.90;58.90
36322;DHT22;23564;48.290;11.460;2023-04-03T13:07:58;7.90;91.80
36322;DHT22;23564;48.290;11.460;2023-04-03T13:10:23;7.80;90.40
36322;DHT22;23564;48.290;11.460;2023-04-03T13:12:55;7.60;41.60
36322;DHT22;23564;48.290;11.460;2023-04-03T13:15:25;7.40;44.10
36322;DHT22;23564;48.290;11.460;2023-04-03T13:17:52;7.30;40.60
36322;DHT22;23564;48.290;11.460;2023-04-03T13:20:36;7.20;24.10
36322;DHT22;23564;48.290;11.460;2023-04-03T13:23:07;7.20;14.10
36322;DHT22;23564;48.290;11.460;2023-04-03T13:25:36;7.10;43.50
36322;DHT22;23564;48.290;11.460;2023-04-03T13:28:05;7.10;30.40
36322;DHT22;23564;48.290;11.460;2023-04-03T13:30:37;7.10;1.00
36322;DHT22;23564;48.290;11.460;2023-04-03T13:33:06;7.10;3.40
36322;DHT22;23564;48.290;11.460;2023-04-03T13:35:43;7.00;1.60
36322;DHT22;23564;48.290;11.460;2023-04-03T13:40:53;7.20;24.80
36322;DHT22;23564;48.290;11.460;2023-04-03T13:43:26;7.30;1.00
36322;DHT22;23564;48.290;11.460;2023-04-03T13:48:26;7.40;1.00
36322;DHT22;23564;48.290;11.460;2023-04-03T13:50:55;7.50;1.00
36322;DHT22;23564;48.290;11.460;2023-04-03T13:53:22;7.60;1.00
36322;DHT22;23564;48.290;11.460;2023-04-03T13:58:29;7.70;1.00
36322;DHT22;23564;48.290;11.460;2023-04-03T14:01:19;7.70;1.00
36322;DHT22;23564;48.290;11.460;2023-04-03T14:04:00;7.60;1.00
36322;DHT22;23564;48.290;11.460;2023-04-03T14:06:26;7.70;1.00
36322;DHT22;23564;48.290;11.460;2023-04-03T14:08:52;7.60;1.00
36322;DHT22;23564;48.290;11.460;2023-04-03T14:11:26;7.50;1.00
36322;DHT22;23564;48.290;11.460;2023-04-03T14:13:55;7.40;1.00
36322;DHT22;23564;48.290;11.460;2023-04-03T14:16:24;7.30;1.00
36322;DHT22;23564;48.290;11.460;2023-04-03T14:18:51;7.20;1.00
36322;DHT22;23564;48.290;11.460;2023-04-03T14:21:18;7.10;1.00
36322;DHT22;23564;48.290;11.460;2023-04-03T14:23:45;7.00;1.00
36322;DHT22;23564;48.290;11.460;2023-04-03T14:26:18;6.80;1.00
36322;DHT22;23564;48.290;11.460;2023-04-03T14:28:48;6.70;1.00
36322;DHT22;23564;48.290;11.460;2023-04-03T14:31:15;6.70;1.00
36322;DHT22;23564;48.290;11.460;2023-04-03T14:33:42;6.60;1.00
36322;DHT22;23564;48.290;11.460;2023-04-03T14:36:24;6.50;1.00
36322;DHT22;23564;48.290;11.460;2023-04-03T14:38:52;6.50;1.00
36322;DHT22;23564;48.290;11.460;2023-04-03T14:41:20;6.50;99.90
36322;DHT22;23564;48.290;11.460;2023-04-03T14:43:47;6.50;99.90
36322;DHT22;23564;48.290;11.460;2023-04-03T14:46:24;6.50;99.90
36322;DHT22;23564;48.290;11.460;2023-04-03T14:48:51;6.40;99.90
36322;DHT22;23564;48.290;11.460;2023-04-03T14:51:17;6.40;99.90
36322;DHT22;23564;48.290;11.460;2023-04-03T14:53:44;6.40;99.90
36322;DHT22;23564;48.290;11.460;2023-04-03T14:56:21;6.50;99.90
36322;DHT22;23564;48.290;11.460;2023-04-03T14:58:49;6.60;99.90
36322;DHT22;23564;48.290;11.460;2023-04-03T15:01:17;6.60;99.90
36322;DHT22;23564;48.290;11.460;2023-04-03T15:03:42;6.80;99.90
36322;DHT22;23564;48.290;11.460;2023-04-03T15:06:13;6.80;99.90
36322;DHT22;23564;48.290;11.460;2023-04-03T15:08:40;6.90;99.90
36322;DHT22;23564;48.290;11.460;2023-04-03T15:11:08;6.80;99.90
36322;DHT22;23564;48.290;11.460;2023-04-03T15:13:33;6.70;99.90
36322;DHT22;23564;48.290;11.460;2023-04-03T15:15:59;6.60;99.90
36322;DHT22;23564;48.290;11.460;2023-04-03T15:18:27;6.50;99.90
36322;DHT22;23564;48.290;11.460;2023-04-03T15:20:53;6.20;99.90
36322;DHT22;23564;48.290;11.460;2023-04-03T15:23:19;6.10;99.90
36322;DHT22;23564;48.290;11.460;2023-04-03T15:25:47;6.10;99.90
36322;DHT22;23564;48.290;11.460;2023-04-03T15:28:33;6.20;99.90
36322;DHT22;23564;48.290;11.460;2023-04-03T15:31:00;6.30;99.90
36322;DHT22;23564;48.290;11.460;2023-04-03T15:33:26;6.40;99.90
36322;DHT22;23564;48.290;11.460;2023-04-03T15:35:52;6.60;99.90
36322;DHT22;23564;48.290;11.460;2023-04-03T15:38:17;6.70;99.90
36322;DHT22;23564;48.290;11.460;2023-04-03T15:40:43;6.70;99.90
36322;DHT22;23564;48.290;11.460;2023-04-03T15:43:09;6.70;99.90
36322;DHT22;23564;48.290;11.460;2023-04-03T15:45:36;6.70;99.90
36322;DHT22;23564;48.290;11.460;2023-04-03T15:48:03;6.80;99.90
36322;DHT22;23564;48.290;11.460;2023-04-03T15:50:30;6.80;99.90
36322;DHT22;23564;48.290;11.460;2023-04-03T15:52:56;6.80;99.90
36322;DHT22;23564;48.290;11.460;2023-04-03T15:55:25;6.80;99.90
36322;DHT22;23564;48.290;11.460;2023-04-03T15:57:51;6.70;99.90
36322;DHT22;23564;48.290;11.460;2023-04-03T16:00:17;6.70;99.90
36322;DHT22;23564;48.290;11.460;2023-04-03T16:02:45;6.60;99.90
36322;DHT22;23564;48.290;11.460;2023-04-03T16:05:12;6.60;99.90
36322;DHT22;23564;48.290;11.460;2023-04-03T16:07:39;6.60;99.90
36322;DHT22;23564;48.290;11.460;2023-04-03T16:10:06;6.60;99.90
36322;DHT22;23564;48.290;11.460;2023-04-03T16:12:32;6.70;99.90
36322;DHT22;23564;48.290;11.460;2023-04-03T16:14:57;6.70;99.90
36322;DHT22;23564;48.290;11.460;2023-04-03T16:17:23;6.80;99.90
36322;DHT22;23564;48.290;11.460;2023-04-03T16:19:49;6.80;99.90
36322;DHT22;23564;48.290;11.460;2023-04-03T16:22:14;6.80;99.90
36322;DHT22;23564;48.290;11.460;2023-04-03T16:24:40;6.90;99.90
36322;DHT22;23564;48.290;11.460;2023-04-03T16:27:06;6.80;99.90
36322;DHT22;23564;48.290;11.460;2023-04-03T16:29:31;6.80;99.90
36322;DHT22;23564;48.290;11.460;2023-04-03T16:31:58;6.60;99.90
36322;DHT22;23564;48.290;11.460;2023-04-03T16:34:24;6.30;99.90
36322;DHT22;23564;48.290;11.460;2023-04-03T16:36:51;6.10;99.90
36322;DHT22;23564;48.290;11.460;2023-04-03T16:39:17;6.00;99.90
36322;DHT22;23564;48.290;11.460;2023-04-03T16:41:43;5.80;99.90
36322;DHT22;23564;48.290;11.460;2023-04-03T16:44:09;5.60;99.90
36322;DHT22;23564;48.290;11.460;2023-04-03T16:46:34;5.50;99.90
36322;DHT22;23564;48.290;11.460;2023-04-03T16:49:00;5.30;99.90
36322;DHT22;23564;48.290;11.460;2023-04-03T16:51:26;5.20;99.90
36322;DHT22;23564;48.290;11.460;2023-04-03T16:53:51;5.20;99.90
36322;DHT22;23564;48.290;11.460;2023-04-03T16:56:17;5.20;99.90
36322;DHT22;23564;48.290;11.460;2023-04-03T16:58:42;5.20;99.90
36322;DHT22;23564;48.290;11.460;2023-04-03T17:01:16;5.20;99.90
36322;DHT22;23564;48.290;11.460;2023-04-03T17:03:42;5.10;99.90
36322;DHT22;23564;48.290;11.460;2023-04-03T17:06:11;5.10;99.90
36322;DHT22;23564;48.290;11.460;2023-04-03T17:08:41;5.00;99.90
36322;DHT22;23564;48.290;11.460;2023-04-03T17:11:07;5.00;99.90
36322;DHT22;23564;48.290;11.460;2023-04-03T17:13:32;4.90;99.90
36322;DHT22;23564;48.290;11.460;2023-04-03T17:15:59;4.90;99.90
36322;DHT22;23564;48.290;11.460;2023-04-03T17:18:27;4.80;99.90
36322;DHT22;23564;48.290;11.460;2023-04-03T17:20:52;4.80;99.90
36322;DHT22;23564;48.290;11.460;2023-04-03T17:23:18;4.70;99.90
36322;DHT22;23564;48.290;11.460;2023-04-03T17:25:43;4.70;99.90
36322;DHT22;23564;48.290;11.460;2023-04-03T17:28:09;4.60;99.90
36322;DHT22;23564;48.290;11.460;2023-04-03T17:30:35;4.60;99.90
36322;DHT22;23564;48.290;11.460;2023-04-03T17:33:00;4.50;99.90
36322;DHT22;23564;48.290;11.460;2023-04-03T17:35:26;4.50;99.90
36322;DHT22;23564;48.290;11.460;2023-04-03T17:37:51;4.40;99.90